sensor_id;sensor_type;location;lat;lon;timestamp;P1;durP1;ratioP1;P2;durP2;ratioP2
9942;SDS011;5010;45.080;7.634;2023-09-19T00:01:01;17.23;;;16.33;;
9942;SDS011;5010;45.080;7.634;2023-09-19T00:03:29;15.13;;;14.35;;
9942;SDS011;5010;45.080;7.634;2023-09-19T00:05:59;15.50;;;14.70;;
9942;SDS011;5010;45.080;7.634;2023-09-19T00:08:26;16.60;;;15.80;;
9942;SDS011;5010;45.080;7.634;2023-09-19T00:10:54;15.55;;;14.75;;
9942;SDS011;5010;45.080;7.634;2023-09-19T00:13:21;13.90;;;13.20;;
9942;SDS011;5010;45.080;7.634;2023-09-19T00:15:50;15.70;;;14.90;;
9942;SDS011;5010;45.080;7.634;2023-09-19T00:18:18;15.40;;;14.60;;
9942;SDS011;5010;45.080;7.634;2023-09-19T00:20:46;13.18;;;12.48;;
9942;SDS011;5010;45.080;7.634;2023-09-19T00:23:15;17.20;;;16.30;;
9942;SDS011;5010;45.080;7.634;2023-09-19T00:25:44;14.40;;;13.68;;
9942;SDS011;5010;45.080;7.634;2023-09-19T00:28:11;17.27;;;16.40;;
9942;SDS011;5010;45.080;7.634;2023-09-19T00:30:42;17.45;;;16.55;;
9942;SDS011;5010;45.080;7.634;2023-09-19T00:33:09;18.83;;;17.90;;
9942;SDS011;5010;45.080;7.634;2023-09-19T00:35:43;13.60;;;12.90;;
9942;SDS011;5010;45.080;7.634;2023-09-19T00:38:13;12.93;;;12.25;;
9942;SDS011;5010;45.080;7.634;2023-09-19T00:40:44;16.02;;;15.23;;
9942;SDS011;5010;45.080;7.634;2023-09-19T00:43:12;13.45;;;12.75;;
9942;SDS011;5010;45.080;7.634;2023-09-19T00:45:41;16.48;;;15.65;;
9942;SDS011;5010;45.080;7.634;2023-09-19T00:48:09;16.80;;;15.95;;
9942;SDS011;5010;45.080;7.634;2023-09-19T00:50:36;16.13;;;15.32;;
9942;SDS011;5010;45.080;7.634;2023-09-19T00:53:07;13.30;;;12.60;;
9942;SDS011;5010;45.080;7.634;2023-09-19T00:55:35;13.70;;;13.00;;
9942;SDS011;5010;45.080;7.634;2023-09-19T00:58:04;11.18;;;10.63;;
9942;SDS011;5010;45.080;7.634;2023-09-19T01:00:32;15.85;;;15.05;;
9942;SDS011;5010;45.080;7.634;2023-09-19T01:03:00;14.80;;;14.00;;
9942;SDS011;5010;45.080;7.634;2023-09-19T01:05:28;13.43;;;12.73;;
9942;SDS011;5010;45.080;7.634;2023-09-19T01:07:55;14.20;;;12.02;;
9942;SDS011;5010;45.080;7.634;2023-09-19T01:10:23;13.20;;;12.50;;
9942;SDS011;5010;45.080;7.634;2023-09-19T01:12:54;11.07;;;10.48;;
9942;SDS011;5010;45.080;7.634;2023-09-19T01:15:28;15.52;;;12.23;;
9942;SDS011;5010;45.080;7.634;2023-09-19T01:17:57;10.90;;;10.32;;
9942;SDS011;5010;45.080;7.634;2023-09-19T01:20:33;14.65;;;13.90;;
9942;SDS011;5010;45.080;7.634;2023-09-19T01:23:12;14.18;;;13.48;;
9942;SDS011;5010;45.080;7.634;2023-09-19T01:28:34;12.38;;;11.77;;
9942;SDS011;5010;45.080;7.634;2023-09-19T01:31:09;11.77;;;11.18;;
9942;SDS011;5010;45.080;7.634;2023-09-19T01:33:56;11.20;;;10.60;;
9942;SDS011;5010;45.080;7.634;2023-09-19T01:36:25;12.30;;;11.70;;
9942;SDS011;5010;45.080;7.634;2023-09-19T01:38:52;10.70;;;10.10;;
9942;SDS011;5010;45.080;7.634;2023-09-19T01:41:23;11.90;;;11.30;;
9942;SDS011;5010;45.080;7.634;2023-09-19T01:43:52;11.27;;;10.68;;
9942;SDS011;5010;45.080;7.634;2023-09-19T01:46:24;11.38;;;10.77;;
9942;SDS011;5010;45.080;7.634;2023-09-19T01:48:54;11.15;;;10.55;;
9942;SDS011;5010;45.080;7.634;2023-09-19T01:51:29;9.93;;;9.43;;
9942;SDS011;5010;45.080;7.634;2023-09-19T01:54:00;11.70;;;11.10;;
9942;SDS011;5010;45.080;7.634;2023-09-19T01:56:30;11.57;;;11.00;;
9942;SDS011;5010;45.080;7.634;2023-09-19T01:59:02;15.95;;;15.15;;
9942;SDS011;5010;45.080;7.634;2023-09-19T02:01:31;11.00;;;10.40;;
9942;SDS011;5010;45.080;7.634;2023-09-19T02:03:59;11.25;;;10.65;;
9942;SDS011;5010;45.080;7.634;2023-09-19T02:06:26;8.73;;;8.13;;
9942;SDS011;5010;45.080;7.634;2023-09-19T02:08:54;10.20;;;9.70;;
9942;SDS011;5010;45.080;7.634;2023-09-19T02:11:21;11.20;;;10.60;;
9942;SDS011;5010;45.080;7.634;2023-09-19T02:13:48;10.10;;;9.60;;
9942;SDS011;5010;45.080;7.634;2023-09-19T02:16:19;9.07;;;8.57;;
9942;SDS011;5010;45.080;7.634;2023-09-19T02:18:48;10.30;;;9.77;;
9942;SDS011;5010;45.080;7.634;2023-09-19T02:21:16;9.73;;;9.23;;
9942;SDS011;5010;45.080;7.634;2023-09-19T02:23:43;10.05;;;9.43;;
9942;SDS011;5010;45.080;7.634;2023-09-19T02:26:12;12.82;;;10.68;;
9942;SDS011;5010;45.080;7.634;2023-09-19T02:28:39;10.63;;;10.02;;
9942;SDS011;5010;45.080;7.634;2023-09-19T02:31:06;9.43;;;8.95;;
9942;SDS011;5010;45.080;7.634;2023-09-19T02:33:34;9.25;;;8.75;;
9942;SDS011;5010;45.080;7.634;2023-09-19T02:36:03;11.57;;;10.07;;
9942;SDS011;5010;45.080;7.634;2023-09-19T02:38:31;10.07;;;8.80;;
9942;SDS011;5010;45.080;7.634;2023-09-19T02:40:58;9.05;;;8.63;;
9942;SDS011;5010;45.080;7.634;2023-09-19T02:43:26;8.40;;;7.68;;
9942;SDS011;5010;45.080;7.634;2023-09-19T02:45:54;9.07;;;8.57;;
9942;SDS011;5010;45.080;7.634;2023-09-19T02:48:22;11.80;;;7.90;;
9942;SDS011;5010;45.080;7.634;2023-09-19T02:50:50;9.68;;;8.00;;
9942;SDS011;5010;45.080;7.634;2023-09-19T02:53:19;8.90;;;8.40;;
9942;SDS011;5010;45.080;7.634;2023-09-19T02:55:47;8.95;;;8.45;;
9942;SDS011;5010;45.080;7.634;2023-09-19T02:58:14;8.88;;;8.38;;
9942;SDS011;5010;45.080;7.634;2023-09-19T03:00:43;9.07;;;8.05;;
9942;SDS011;5010;45.080;7.634;2023-09-19T03:03:12;8.40;;;7.95;;
9942;SDS011;5010;45.080;7.634;2023-09-19T03:05:41;8.90;;;8.40;;
9942;SDS011;5010;45.080;7.634;2023-09-19T03:08:11;8.90;;;8.27;;
9942;SDS011;5010;45.080;7.634;2023-09-19T03:10:41;7.70;;;7.30;;
9942;SDS011;5010;45.080;7.634;2023-09-19T03:13:09;9.05;;;8.55;;
9942;SDS011;5010;45.080;7.634;2023-09-19T03:15:37;9.13;;;8.63;;
9942;SDS011;5010;45.080;7.634;2023-09-19T03:18:09;12.35;;;7.68;;
9942;SDS011;5010;45.080;7.634;2023-09-19T03:20:36;7.07;;;6.38;;
9942;SDS011;5010;45.080;7.634;2023-09-19T03:23:03;7.78;;;6.72;;
9942;SDS011;5010;45.080;7.634;2023-09-19T03:25:33;9.57;;;9.07;;
9942;SDS011;5010;45.080;7.634;2023-09-19T03:28:02;8.40;;;6.40;;
9942;SDS011;5010;45.080;7.634;2023-09-19T03:30:31;7.05;;;6.30;;
9942;SDS011;5010;45.080;7.634;2023-09-19T03:32:59;8.50;;;7.97;;
9942;SDS011;5010;45.080;7.634;2023-09-19T03:35:26;8.57;;;6.75;;
9942;SDS011;5010;45.080;7.634;2023-09-19T03:37:53;8.75;;;8.25;;
9942;SDS011;5010;45.080;7.634;2023-09-19T03:40:21;11.40;;;7.00;;
9942;SDS011;5010;45.080;7.634;2023-09-19T03:42:50;7.78;;;6.22;;
9942;SDS011;5010;45.080;7.634;2023-09-19T03:45:22;10.60;;;8.57;;
9942;SDS011;5010;45.080;7.634;2023-09-19T03:47:49;6.72;;;6.07;;
9942;SDS011;5010;45.080;7.634;2023-09-19T03:50:17;6.88;;;6.15;;
9942;SDS011;5010;45.080;7.634;2023-09-19T03:52:44;7.60;;;6.82;;
9942;SDS011;5010;45.080;7.634;2023-09-19T03:55:12;7.75;;;6.75;;
9942;SDS011;5010;45.080;7.634;2023-09-19T03:57:39;9.65;;;9.15;;
9942;SDS011;5010;45.080;7.634;2023-09-19T04:00:07;8.40;;;6.90;;
9942;SDS011;5010;45.080;7.634;2023-09-19T04:02:37;7.72;;;6.97;;
9942;SDS011;5010;45.080;7.634;2023-09-19T04:05:05;7.78;;;7.38;;
9942;SDS011;5010;45.080;7.634;2023-09-19T04:07:32;8.05;;;6.70;;
9942;SDS011;5010;45.080;7.634;2023-09-19T04:10:00;8.35;;;6.55;;
9942;SDS011;5010;45.080;7.634;2023-09-19T04:12:27;8.02;;;6.32;;
9942;SDS011;5010;45.080;7.634;2023-09-19T04:14:54;8.10;;;7.70;;
9942;SDS011;5010;45.080;7.634;2023-09-19T04:17:22;7.72;;;7.35;;
9942;SDS011;5010;45.080;7.634;2023-09-19T04:19:50;9.10;;;6.63;;
9942;SDS011;5010;45.080;7.634;2023-09-19T04:22:18;8.75;;;7.70;;
9942;SDS011;5010;45.080;7.634;2023-09-19T04:24:45;7.70;;;7.30;;
9942;SDS011;5010;45.080;7.634;2023-09-19T04:27:13;8.80;;;8.30;;
9942;SDS011;5010;45.080;7.634;2023-09-19T04:29:40;6.68;;;6.22;;
9942;SDS011;5010;45.080;7.634;2023-09-19T04:32:08;7.18;;;6.30;;
9942;SDS011;5010;45.080;7.634;2023-09-19T04:34:35;8.38;;;7.15;;
9942;SDS011;5010;45.080;7.634;2023-09-19T04:37:04;7.35;;;6.95;;
9942;SDS011;5010;45.080;7.634;2023-09-19T04:39:32;6.25;;;5.70;;
9942;SDS011;5010;45.080;7.634;2023-09-19T04:41:59;7.13;;;6.40;;
9942;SDS011;5010;45.080;7.634;2023-09-19T04:44:26;8.27;;;6.90;;
9942;SDS011;5010;45.080;7.634;2023-09-19T04:46:54;6.78;;;5.50;;
9942;SDS011;5010;45.080;7.634;2023-09-19T04:49:22;7.18;;;6.00;;
9942;SDS011;5010;45.080;7.634;2023-09-19T04:51:49;9.77;;;6.80;;
9942;SDS011;5010;45.080;7.634;2023-09-19T04:54:17;8.32;;;5.57;;
9942;SDS011;5010;45.080;7.634;2023-09-19T04:56:45;7.75;;;5.63;;
9942;SDS011;5010;45.080;7.634;2023-09-19T04:59:12;7.13;;;5.85;;
9942;SDS011;5010;45.080;7.634;2023-09-19T05:01:39;6.70;;;5.13;;
9942;SDS011;5010;45.080;7.634;2023-09-19T05:04:07;6.70;;;5.72;;
9942;SDS011;5010;45.080;7.634;2023-09-19T05:06:34;8.43;;;7.30;;
9942;SDS011;5010;45.080;7.634;2023-09-19T05:09:01;8.98;;;8.48;;
9942;SDS011;5010;45.080;7.634;2023-09-19T05:11:31;7.93;;;7.25;;
9942;SDS011;5010;45.080;7.634;2023-09-19T05:13:59;8.75;;;8.25;;
9942;SDS011;5010;45.080;7.634;2023-09-19T05:16:28;7.45;;;5.72;;
9942;SDS011;5010;45.080;7.634;2023-09-19T05:18:56;6.55;;;5.00;;
9942;SDS011;5010;45.080;7.634;2023-09-19T05:21:25;9.00;;;5.40;;
9942;SDS011;5010;45.080;7.634;2023-09-19T05:23:53;8.98;;;4.95;;
9942;SDS011;5010;45.080;7.634;2023-09-19T05:26:21;8.90;;;6.78;;
9942;SDS011;5010;45.080;7.634;2023-09-19T05:28:49;6.80;;;6.40;;
9942;SDS011;5010;45.080;7.634;2023-09-19T05:31:17;7.05;;;6.35;;
9942;SDS011;5010;45.080;7.634;2023-09-19T05:33:45;12.68;;;6.60;;
9942;SDS011;5010;45.080;7.634;2023-09-19T05:38:44;5.90;;;4.68;;
9942;SDS011;5010;45.080;7.634;2023-09-19T05:41:18;6.35;;;5.82;;
9942;SDS011;5010;45.080;7.634;2023-09-19T05:43:47;6.72;;;4.90;;
9942;SDS011;5010;45.080;7.634;2023-09-19T05:46:27;6.60;;;4.65;;
9942;SDS011;5010;45.080;7.634;2023-09-19T05:48:55;6.20;;;5.38;;
9942;SDS011;5010;45.080;7.634;2023-09-19T05:51:22;7.70;;;7.30;;
9942;SDS011;5010;45.080;7.634;2023-09-19T05:53:50;6.57;;;6.20;;
9942;SDS011;5010;45.080;7.634;2023-09-19T05:56:19;6.63;;;5.70;;
9942;SDS011;5010;45.080;7.634;2023-09-19T05:58:47;9.35;;;5.80;;
9942;SDS011;5010;45.080;7.634;2023-09-19T06:01:14;6.70;;;6.30;;
9942;SDS011;5010;45.080;7.634;2023-09-19T06:03:43;5.85;;;5.65;;
9942;SDS011;5010;45.080;7.634;2023-09-19T06:06:10;7.28;;;6.88;;
9942;SDS011;5010;45.080;7.634;2023-09-19T06:08:38;6.65;;;5.68;;
9942;SDS011;5010;45.080;7.634;2023-09-19T06:11:05;5.97;;;5.32;;
9942;SDS011;5010;45.080;7.634;2023-09-19T06:13:34;6.80;;;5.88;;
9942;SDS011;5010;45.080;7.634;2023-09-19T06:16:04;5.43;;;4.85;;
9942;SDS011;5010;45.080;7.634;2023-09-19T06:18:31;8.18;;;6.53;;
9942;SDS011;5010;45.080;7.634;2023-09-19T06:21:01;8.13;;;5.13;;
9942;SDS011;5010;45.080;7.634;2023-09-19T06:23:33;6.35;;;5.57;;
9942;SDS011;5010;45.080;7.634;2023-09-19T06:26:00;6.93;;;5.80;;
9942;SDS011;5010;45.080;7.634;2023-09-19T06:28:28;6.85;;;6.45;;
9942;SDS011;5010;45.080;7.634;2023-09-19T06:30:55;7.00;;;6.60;;
9942;SDS011;5010;45.080;7.634;2023-09-19T06:33:23;6.25;;;5.80;;
9942;SDS011;5010;45.080;7.634;2023-09-19T06:35:50;7.63;;;6.28;;
9942;SDS011;5010;45.080;7.634;2023-09-19T06:38:25;7.20;;;5.78;;
9942;SDS011;5010;45.080;7.634;2023-09-19T06:40:53;6.00;;;5.10;;
9942;SDS011;5010;45.080;7.634;2023-09-19T06:43:20;6.75;;;5.63;;
9942;SDS011;5010;45.080;7.634;2023-09-19T06:45:48;8.02;;;7.00;;
9942;SDS011;5010;45.080;7.634;2023-09-19T06:48:16;6.40;;;6.00;;
9942;SDS011;5010;45.080;7.634;2023-09-19T06:50:44;12.68;;;6.15;;
9942;SDS011;5010;45.080;7.634;2023-09-19T06:53:13;7.45;;;6.40;;
9942;SDS011;5010;45.080;7.634;2023-09-19T06:55:44;5.95;;;5.57;;
9942;SDS011;5010;45.080;7.634;2023-09-19T06:58:12;6.18;;;5.43;;
9942;SDS011;5010;45.080;7.634;2023-09-19T07:00:41;7.85;;;5.50;;
9942;SDS011;5010;45.080;7.634;2023-09-19T07:03:09;7.53;;;6.05;;
9942;SDS011;5010;45.080;7.634;2023-09-19T07:05:37;5.78;;;5.18;;
9942;SDS011;5010;45.080;7.634;2023-09-19T07:08:05;8.65;;;5.40;;
9942;SDS011;5010;45.080;7.634;2023-09-19T07:10:33;9.80;;;6.75;;
9942;SDS011;5010;45.080;7.634;2023-09-19T07:13:02;7.05;;;5.80;;
9942;SDS011;5010;45.080;7.634;2023-09-19T07:15:32;11.10;;;6.75;;
9942;SDS011;5010;45.080;7.634;2023-09-19T07:18:00;7.57;;;6.70;;
9942;SDS011;5010;45.080;7.634;2023-09-19T07:20:28;6.68;;;6.25;;
9942;SDS011;5010;45.080;7.634;2023-09-19T07:22:57;6.85;;;5.75;;
9942;SDS011;5010;45.080;7.634;2023-09-19T07:25:26;7.28;;;6.47;;
9942;SDS011;5010;45.080;7.634;2023-09-19T07:27:54;7.57;;;6.40;;
9942;SDS011;5010;45.080;7.634;2023-09-19T07:30:26;7.45;;;6.05;;
9942;SDS011;5010;45.080;7.634;2023-09-19T07:32:54;8.60;;;8.13;;
9942;SDS011;5010;45.080;7.634;2023-09-19T07:35:21;8.02;;;7.63;;
9942;SDS011;5010;45.080;7.634;2023-09-19T07:37:48;9.98;;;7.10;;
9942;SDS011;5010;45.080;7.634;2023-09-19T07:40:16;7.45;;;7.05;;
9942;SDS011;5010;45.080;7.634;2023-09-19T07:42:44;9.25;;;6.50;;
9942;SDS011;5010;45.080;7.634;2023-09-19T07:45:12;9.02;;;6.30;;
9942;SDS011;5010;45.080;7.634;2023-09-19T07:47:45;7.45;;;6.18;;
9942;SDS011;5010;45.080;7.634;2023-09-19T07:50:12;8.90;;;7.10;;
9942;SDS011;5010;45.080;7.634;2023-09-19T07:52:41;7.40;;;5.60;;
9942;SDS011;5010;45.080;7.634;2023-09-19T07:55:09;7.30;;;6.80;;
9942;SDS011;5010;45.080;7.634;2023-09-19T07:57:36;9.02;;;7.25;;
9942;SDS011;5010;45.080;7.634;2023-09-19T08:00:05;7.10;;;6.10;;
9942;SDS011;5010;45.080;7.634;2023-09-19T08:02:34;6.70;;;6.38;;
9942;SDS011;5010;45.080;7.634;2023-09-19T08:05:04;8.13;;;6.80;;
9942;SDS011;5010;45.080;7.634;2023-09-19T08:07:34;7.97;;;7.57;;
9942;SDS011;5010;45.080;7.634;2023-09-19T08:10:02;8.82;;;8.32;;
9942;SDS011;5010;45.080;7.634;2023-09-19T08:12:29;10.80;;;8.05;;
9942;SDS011;5010;45.080;7.634;2023-09-19T08:15:01;7.97;;;7.53;;
9942;SDS011;5010;45.080;7.634;2023-09-19T08:17:28;7.57;;;6.88;;
9942;SDS011;5010;45.080;7.634;2023-09-19T08:19:56;7.90;;;6.82;;
9942;SDS011;5010;45.080;7.634;2023-09-19T08:22:24;7.85;;;6.97;;
9942;SDS011;5010;45.080;7.634;2023-09-19T08:24:52;7.95;;;6.75;;
9942;SDS011;5010;45.080;7.634;2023-09-19T08:27:21;12.38;;;8.15;;
9942;SDS011;5010;45.080;7.634;2023-09-19T08:29:51;7.88;;;7.10;;
9942;SDS011;5010;45.080;7.634;2023-09-19T08:32:19;9.02;;;8.52;;
9942;SDS011;5010;45.080;7.634;2023-09-19T08:34:49;9.13;;;8.63;;
9942;SDS011;5010;45.080;7.634;2023-09-19T08:37:16;8.38;;;6.20;;
9942;SDS011;5010;45.080;7.634;2023-09-19T08:39:45;8.55;;;7.93;;
9942;SDS011;5010;45.080;7.634;2023-09-19T08:42:12;8.18;;;7.57;;
9942;SDS011;5010;45.080;7.634;2023-09-19T08:44:41;8.20;;;7.30;;
9942;SDS011;5010;45.080;7.634;2023-09-19T08:47:11;8.10;;;7.70;;
9942;SDS011;5010;45.080;7.634;2023-09-19T08:49:41;7.28;;;6.88;;
9942;SDS011;5010;45.080;7.634;2023-09-19T08:52:10;10.00;;;9.50;;
9942;SDS011;5010;45.080;7.634;2023-09-19T08:54:44;8.15;;;7.63;;
9942;SDS011;5010;45.080;7.634;2023-09-19T08:57:13;9.15;;;7.63;;
9942;SDS011;5010;45.080;7.634;2023-09-19T08:59:46;15.93;;;7.55;;
9942;SDS011;5010;45.080;7.634;2023-09-19T09:02:16;9.63;;;8.55;;
9942;SDS011;5010;45.080;7.634;2023-09-19T09:04:45;9.35;;;7.75;;
9942;SDS011;5010;45.080;7.634;2023-09-19T09:07:13;8.50;;;7.40;;
9942;SDS011;5010;45.080;7.634;2023-09-19T09:09:41;9.15;;;7.93;;
9942;SDS011;5010;45.080;7.634;2023-09-19T09:12:12;7.72;;;7.05;;
9942;SDS011;5010;45.080;7.634;2023-09-19T09:14:40;10.10;;;7.70;;
9942;SDS011;5010;45.080;7.634;2023-09-19T09:17:11;8.68;;;7.28;;
9942;SDS011;5010;45.080;7.634;2023-09-19T09:19:38;9.30;;;7.47;;
9942;SDS011;5010;45.080;7.634;2023-09-19T09:22:07;8.68;;;8.18;;
9942;SDS011;5010;45.080;7.634;2023-09-19T09:24:35;8.07;;;7.35;;
9942;SDS011;5010;45.080;7.634;2023-09-19T09:27:05;8.88;;;7.13;;
9942;SDS011;5010;45.080;7.634;2023-09-19T09:29:42;9.07;;;8.63;;
9942;SDS011;5010;45.080;7.634;2023-09-19T09:32:19;8.50;;;8.05;;
9942;SDS011;5010;45.080;7.634;2023-09-19T09:34:47;8.93;;;7.85;;
9942;SDS011;5010;45.080;7.634;2023-09-19T09:37:14;8.88;;;7.50;;
9942;SDS011;5010;45.080;7.634;2023-09-19T09:39:48;10.65;;;7.43;;
9942;SDS011;5010;45.080;7.634;2023-09-19T09:42:28;10.90;;;10.30;;
9942;SDS011;5010;45.080;7.634;2023-09-19T09:45:15;12.27;;;9.90;;
9942;SDS011;5010;45.080;7.634;2023-09-19T09:47:43;11.65;;;8.95;;
9942;SDS011;5010;45.080;7.634;2023-09-19T09:50:26;12.98;;;11.13;;
9942;SDS011;5010;45.080;7.634;2023-09-19T09:53:04;9.48;;;7.63;;
9942;SDS011;5010;45.080;7.634;2023-09-19T09:55:56;8.98;;;8.02;;
9942;SDS011;5010;45.080;7.634;2023-09-19T09:58:24;8.30;;;7.07;;
9942;SDS011;5010;45.080;7.634;2023-09-19T10:00:55;10.73;;;9.23;;
9942;SDS011;5010;45.080;7.634;2023-09-19T10:03:33;8.48;;;8.00;;
9942;SDS011;5010;45.080;7.634;2023-09-19T10:06:04;11.20;;;7.53;;
9942;SDS011;5010;45.080;7.634;2023-09-19T10:08:57;10.07;;;8.35;;
9942;SDS011;5010;45.080;7.634;2023-09-19T10:11:29;9.25;;;7.60;;
9942;SDS011;5010;45.080;7.634;2023-09-19T10:13:57;9.10;;;7.75;;
9942;SDS011;5010;45.080;7.634;2023-09-19T10:16:27;10.63;;;9.30;;
9942;SDS011;5010;45.080;7.634;2023-09-19T10:18:57;8.95;;;6.72;;
9942;SDS011;5010;45.080;7.634;2023-09-19T10:21:25;9.55;;;8.50;;
9942;SDS011;5010;45.080;7.634;2023-09-19T10:23:55;8.60;;;7.90;;
9942;SDS011;5010;45.080;7.634;2023-09-19T10:26:24;11.57;;;8.93;;
9942;SDS011;5010;45.080;7.634;2023-09-19T10:28:56;9.65;;;8.38;;
9942;SDS011;5010;45.080;7.634;2023-09-19T10:31:25;9.32;;;8.27;;
9942;SDS011;5010;45.080;7.634;2023-09-19T10:33:54;11.02;;;10.45;;
9942;SDS011;5010;45.080;7.634;2023-09-19T10:36:23;9.65;;;9.15;;
9942;SDS011;5010;45.080;7.634;2023-09-19T10:38:54;9.82;;;9.05;;
9942;SDS011;5010;45.080;7.634;2023-09-19T10:41:23;9.65;;;9.15;;
9942;SDS011;5010;45.080;7.634;2023-09-19T10:43:51;11.68;;;9.57;;
9942;SDS011;5010;45.080;7.634;2023-09-19T10:46:22;10.73;;;8.65;;
9942;SDS011;5010;45.080;7.634;2023-09-19T10:48:50;9.48;;;8.15;;
9942;SDS011;5010;45.080;7.634;2023-09-19T10:51:21;9.15;;;8.32;;
9942;SDS011;5010;45.080;7.634;2023-09-19T10:53:51;11.43;;;10.82;;
9942;SDS011;5010;45.080;7.634;2023-09-19T10:56:24;10.32;;;9.25;;
9942;SDS011;5010;45.080;7.634;2023-09-19T10:59:04;10.30;;;8.93;;
9942;SDS011;5010;45.080;7.634;2023-09-19T11:01:40;12.32;;;9.55;;
9942;SDS011;5010;45.080;7.634;2023-09-19T11:04:25;10.13;;;8.65;;
9942;SDS011;5010;45.080;7.634;2023-09-19T11:07:02;10.68;;;7.05;;
9942;SDS011;5010;45.080;7.634;2023-09-19T11:09:43;10.48;;;9.13;;
9942;SDS011;5010;45.080;7.634;2023-09-19T11:12:11;9.05;;;7.75;;
9942;SDS011;5010;45.080;7.634;2023-09-19T11:14:39;11.52;;;8.30;;
9942;SDS011;5010;45.080;7.634;2023-09-19T11:20:19;9.88;;;9.15;;
9942;SDS011;5010;45.080;7.634;2023-09-19T11:23:23;10.98;;;8.85;;
9942;SDS011;5010;45.080;7.634;2023-09-19T11:25:52;11.20;;;9.25;;
9942;SDS011;5010;45.080;7.634;2023-09-19T11:28:35;8.95;;;8.25;;
9942;SDS011;5010;45.080;7.634;2023-09-19T11:33:48;8.20;;;6.70;;
9942;SDS011;5010;45.080;7.634;2023-09-19T11:36:36;10.13;;;9.65;;
9942;SDS011;5010;45.080;7.634;2023-09-19T11:39:04;9.60;;;7.50;;
9942;SDS011;5010;45.080;7.634;2023-09-19T11:41:40;9.40;;;8.75;;
9942;SDS011;5010;45.080;7.634;2023-09-19T11:46:53;9.40;;;8.93;;
9942;SDS011;5010;45.080;7.634;2023-09-19T11:49:25;9.25;;;8.00;;
9942;SDS011;5010;45.080;7.634;2023-09-19T11:51:57;10.82;;;9.20;;
9942;SDS011;5010;45.080;7.634;2023-09-19T11:54:28;10.88;;;8.13;;
9942;SDS011;5010;45.080;7.634;2023-09-19T11:56:57;12.15;;;8.90;;
9942;SDS011;5010;45.080;7.634;2023-09-19T11:59:25;10.23;;;8.35;;
9942;SDS011;5010;45.080;7.634;2023-09-19T12:01:54;10.30;;;9.23;;
9942;SDS011;5010;45.080;7.634;2023-09-19T12:04:32;10.68;;;9.85;;
9942;SDS011;5010;45.080;7.634;2023-09-19T12:07:00;10.32;;;8.43;;
9942;SDS011;5010;45.080;7.634;2023-09-19T12:09:31;10.10;;;9.00;;
9942;SDS011;5010;45.080;7.634;2023-09-19T12:11:58;10.27;;;9.77;;
9942;SDS011;5010;45.080;7.634;2023-09-19T12:14:25;8.55;;;8.10;;
9942;SDS011;5010;45.080;7.634;2023-09-19T12:16:53;9.20;;;8.70;;
9942;SDS011;5010;45.080;7.634;2023-09-19T12:19:21;11.15;;;9.20;;
9942;SDS011;5010;45.080;7.634;2023-09-19T12:21:55;11.27;;;9.00;;
9942;SDS011;5010;45.080;7.634;2023-09-19T12:24:24;11.52;;;8.60;;
9942;SDS011;5010;45.080;7.634;2023-09-19T12:26:59;8.88;;;7.50;;
9942;SDS011;5010;45.080;7.634;2023-09-19T12:29:26;14.45;;;9.30;;
9942;SDS011;5010;45.080;7.634;2023-09-19T12:31:55;10.65;;;9.02;;
9942;SDS011;5010;45.080;7.634;2023-09-19T12:34:23;10.25;;;8.73;;
9942;SDS011;5010;45.080;7.634;2023-09-19T12:39:40;11.10;;;9.35;;
9942;SDS011;5010;45.080;7.634;2023-09-19T12:42:11;11.88;;;8.73;;
9942;SDS011;5010;45.080;7.634;2023-09-19T12:44:40;8.82;;;8.18;;
9942;SDS011;5010;45.080;7.634;2023-09-19T12:47:09;10.07;;;8.57;;
9942;SDS011;5010;45.080;7.634;2023-09-19T12:52:19;12.30;;;8.45;;
9942;SDS011;5010;45.080;7.634;2023-09-19T12:54:46;12.50;;;9.85;;
9942;SDS011;5010;45.080;7.634;2023-09-19T12:57:24;11.15;;;10.10;;
9942;SDS011;5010;45.080;7.634;2023-09-19T12:59:51;9.57;;;8.27;;
9942;SDS011;5010;45.080;7.634;2023-09-19T13:02:19;9.98;;;8.40;;
9942;SDS011;5010;45.080;7.634;2023-09-19T13:04:52;10.30;;;8.07;;
9942;SDS011;5010;45.080;7.634;2023-09-19T13:07:40;10.32;;;9.18;;
9942;SDS011;5010;45.080;7.634;2023-09-19T13:10:12;9.57;;;7.05;;
9942;SDS011;5010;45.080;7.634;2023-09-19T13:12:43;12.73;;;9.38;;
9942;SDS011;5010;45.080;7.634;2023-09-19T13:15:13;11.90;;;9.57;;
9942;SDS011;5010;45.080;7.634;2023-09-19T13:17:44;9.45;;;8.95;;
9942;SDS011;5010;45.080;7.634;2023-09-19T13:20:22;9.77;;;9.27;;
9942;SDS011;5010;45.080;7.634;2023-09-19T13:22:58;10.30;;;8.05;;
9942;SDS011;5010;45.080;7.634;2023-09-19T13:25:31;10.98;;;9.15;;
9942;SDS011;5010;45.080;7.634;2023-09-19T13:28:01;10.15;;;9.65;;
9942;SDS011;5010;45.080;7.634;2023-09-19T13:30:29;11.90;;;9.75;;
9942;SDS011;5010;45.080;7.634;2023-09-19T13:33:06;9.80;;;8.48;;
9942;SDS011;5010;45.080;7.634;2023-09-19T13:35:34;10.88;;;10.27;;
9942;SDS011;5010;45.080;7.634;2023-09-19T13:38:03;10.48;;;9.18;;
9942;SDS011;5010;45.080;7.634;2023-09-19T13:40:31;10.10;;;9.60;;
9942;SDS011;5010;45.080;7.634;2023-09-19T13:43:01;10.45;;;9.27;;
9942;SDS011;5010;45.080;7.634;2023-09-19T13:45:28;13.70;;;8.73;;
9942;SDS011;5010;45.080;7.634;2023-09-19T13:47:55;9.43;;;8.73;;
9942;SDS011;5010;45.080;7.634;2023-09-19T13:50:24;10.88;;;9.50;;
9942;SDS011;5010;45.080;7.634;2023-09-19T13:52:54;11.07;;;9.32;;
9942;SDS011;5010;45.080;7.634;2023-09-19T13:55:23;11.02;;;9.60;;
9942;SDS011;5010;45.080;7.634;2023-09-19T13:57:51;11.43;;;10.82;;
9942;SDS011;5010;45.080;7.634;2023-09-19T14:00:21;11.05;;;8.70;;
9942;SDS011;5010;45.080;7.634;2023-09-19T14:02:48;9.82;;;8.63;;
9942;SDS011;5010;45.080;7.634;2023-09-19T14:05:16;10.45;;;9.25;;
9942;SDS011;5010;45.080;7.634;2023-09-19T14:07:45;10.60;;;10.05;;
9942;SDS011;5010;45.080;7.634;2023-09-19T14:10:16;11.32;;;8.65;;
9942;SDS011;5010;45.080;7.634;2023-09-19T14:12:44;9.05;;;7.90;;
9942;SDS011;5010;45.080;7.634;2023-09-19T14:15:11;9.65;;;8.20;;
9942;SDS011;5010;45.080;7.634;2023-09-19T14:17:40;10.48;;;7.10;;
9942;SDS011;5010;45.080;7.634;2023-09-19T14:20:10;10.38;;;9.90;;
9942;SDS011;5010;45.080;7.634;2023-09-19T14:22:37;9.63;;;7.78;;
9942;SDS011;5010;45.080;7.634;2023-09-19T14:25:04;8.85;;;7.93;;
9942;SDS011;5010;45.080;7.634;2023-09-19T14:27:32;10.90;;;8.63;;
9942;SDS011;5010;45.080;7.634;2023-09-19T14:29:59;9.45;;;8.15;;
9942;SDS011;5010;45.080;7.634;2023-09-19T14:32:26;9.30;;;8.18;;
9942;SDS011;5010;45.080;7.634;2023-09-19T14:34:55;10.77;;;9.60;;
9942;SDS011;5010;45.080;7.634;2023-09-19T14:37:22;12.10;;;9.25;;
9942;SDS011;5010;45.080;7.634;2023-09-19T14:39:49;13.48;;;8.02;;
9942;SDS011;5010;45.080;7.634;2023-09-19T14:42:17;11.70;;;7.63;;
9942;SDS011;5010;45.080;7.634;2023-09-19T14:44:44;8.70;;;7.57;;
9942;SDS011;5010;45.080;7.634;2023-09-19T14:47:12;8.40;;;6.80;;
9942;SDS011;5010;45.080;7.634;2023-09-19T14:49:41;9.00;;;6.80;;
9942;SDS011;5010;45.080;7.634;2023-09-19T14:52:11;8.48;;;7.80;;
9942;SDS011;5010;45.080;7.634;2023-09-19T14:54:40;10.57;;;8.10;;
9942;SDS011;5010;45.080;7.634;2023-09-19T14:57:08;8.95;;;7.20;;
9942;SDS011;5010;45.080;7.634;2023-09-19T14:59:35;9.40;;;8.60;;
9942;SDS011;5010;45.080;7.634;2023-09-19T15:02:03;8.27;;;7.88;;
9942;SDS011;5010;45.080;7.634;2023-09-19T15:04:30;8.20;;;7.32;;
9942;SDS011;5010;45.080;7.634;2023-09-19T15:06:58;9.68;;;8.95;;
9942;SDS011;5010;45.080;7.634;2023-09-19T15:09:27;10.95;;;10.35;;
9942;SDS011;5010;45.080;7.634;2023-09-19T15:11:57;9.27;;;8.77;;
9942;SDS011;5010;45.080;7.634;2023-09-19T15:14:24;9.82;;;9.35;;
9942;SDS011;5010;45.080;7.634;2023-09-19T15:16:51;8.90;;;8.40;;
9942;SDS011;5010;45.080;7.634;2023-09-19T15:19:19;12.02;;;10.30;;
9942;SDS011;5010;45.080;7.634;2023-09-19T15:21:47;10.65;;;9.88;;
9942;SDS011;5010;45.080;7.634;2023-09-19T15:24:15;11.02;;;10.43;;
9942;SDS011;5010;45.080;7.634;2023-09-19T15:26:44;12.85;;;10.63;;
9942;SDS011;5010;45.080;7.634;2023-09-19T15:29:12;9.25;;;8.77;;
9942;SDS011;5010;45.080;7.634;2023-09-19T15:31:41;8.68;;;8.23;;
9942;SDS011;5010;45.080;7.634;2023-09-19T15:34:08;9.32;;;8.27;;
9942;SDS011;5010;45.080;7.634;2023-09-19T15:36:39;9.00;;;8.50;;
9942;SDS011;5010;45.080;7.634;2023-09-19T15:39:07;8.75;;;7.70;;
9942;SDS011;5010;45.080;7.634;2023-09-19T15:41:36;9.88;;;9.38;;